sensor_id;sensor_type;location;lat;lon;timestamp;P1;durP1;ratioP1;P2;durP2;ratioP2
19623;SDS011;9959;49.798;9.928;2022-08-05T00:00:52;4.85;;;3.50;;
19623;SDS011;9959;49.798;9.928;2022-08-05T00:03:20;4.20;;;3.10;;
19623;SDS011;9959;49.798;9.928;2022-08-05T00:05:51;6.05;;;3.25;;
19623;SDS011;9959;49.798;9.928;2022-08-05T00:08:39;4.10;;;3.55;;
19623;SDS011;9959;49.798;9.928;2022-08-05T00:11:09;4.45;;;3.00;;
19623;SDS011;9959;49.798;9.928;2022-08-05T00:13:46;4.57;;;3.50;;
19623;SDS011;9959;49.798;9.928;2022-08-05T00:16:18;5.65;;;3.28;;
19623;SDS011;9959;49.798;9.928;2022-08-05T00:19:06;3.97;;;3.13;;
19623;SDS011;9959;49.798;9.928;2022-08-05T00:21:35;4.47;;;3.20;;
19623;SDS011;9959;49.798;9.928;2022-08-05T00:24:07;4.32;;;3.63;;
19623;SDS011;9959;49.798;9.928;2022-08-05T00:26:41;5.50;;;3.47;;
19623;SDS011;9959;49.798;9.928;2022-08-05T00:29:17;5.05;;;3.10;;
19623;SDS011;9959;49.798;9.928;2022-08-05T00:31:50;8.70;;;3.67;;
19623;SDS011;9959;49.798;9.928;2022-08-05T00:34:39;5.05;;;3.70;;
19623;SDS011;9959;49.798;9.928;2022-08-05T00:37:28;6.43;;;3.63;;
19623;SDS011;9959;49.798;9.928;2022-08-05T00:40:16;5.15;;;3.60;;
19623;SDS011;9959;49.798;9.928;2022-08-05T00:42:52;3.83;;;3.33;;
19623;SDS011;9959;49.798;9.928;2022-08-05T00:45:21;4.43;;;3.40;;
19623;SDS011;9959;49.798;9.928;2022-08-05T00:48:04;5.85;;;3.47;;
19623;SDS011;9959;49.798;9.928;2022-08-05T00:50:33;9.02;;;4.63;;
19623;SDS011;9959;49.798;9.928;2022-08-05T00:53:03;7.78;;;4.22;;
19623;SDS011;9959;49.798;9.928;2022-08-05T00:55:51;4.35;;;3.38;;
19623;SDS011;9959;49.798;9.928;2022-08-05T00:58:19;8.43;;;4.40;;
19623;SDS011;9959;49.798;9.928;2022-08-05T01:00:53;4.82;;;3.35;;
19623;SDS011;9959;49.798;9.928;2022-08-05T01:03:22;5.75;;;4.28;;
19623;SDS011;9959;49.798;9.928;2022-08-05T01:05:59;8.40;;;3.83;;
19623;SDS011;9959;49.798;9.928;2022-08-05T01:08:29;5.25;;;3.60;;
19623;SDS011;9959;49.798;9.928;2022-08-05T01:11:10;5.43;;;3.75;;
19623;SDS011;9959;49.798;9.928;2022-08-05T01:13:52;5.60;;;3.42;;
19623;SDS011;9959;49.798;9.928;2022-08-05T01:16:29;3.90;;;3.50;;
19623;SDS011;9959;49.798;9.928;2022-08-05T01:19:07;6.22;;;3.42;;
19623;SDS011;9959;49.798;9.928;2022-08-05T01:21:49;5.75;;;3.47;;
19623;SDS011;9959;49.798;9.928;2022-08-05T01:24:31;4.28;;;3.20;;
19623;SDS011;9959;49.798;9.928;2022-08-05T01:27:12;4.13;;;2.90;;
19623;SDS011;9959;49.798;9.928;2022-08-05T01:29:55;4.53;;;3.35;;
19623;SDS011;9959;49.798;9.928;2022-08-05T01:32:29;4.43;;;3.75;;
19623;SDS011;9959;49.798;9.928;2022-08-05T01:35:04;3.97;;;3.30;;
19623;SDS011;9959;49.798;9.928;2022-08-05T01:37:38;3.60;;;3.20;;
19623;SDS011;9959;49.798;9.928;2022-08-05T01:40:11;4.45;;;3.17;;
19623;SDS011;9959;49.798;9.928;2022-08-05T01:42:43;3.22;;;2.97;;
19623;SDS011;9959;49.798;9.928;2022-08-05T01:45:14;6.15;;;3.33;;
19623;SDS011;9959;49.798;9.928;2022-08-05T01:47:45;3.92;;;3.15;;
19623;SDS011;9959;49.798;9.928;2022-08-05T01:50:16;6.82;;;3.40;;
19623;SDS011;9959;49.798;9.928;2022-08-05T01:52:55;3.75;;;2.90;;
19623;SDS011;9959;49.798;9.928;2022-08-05T01:55:27;4.00;;;3.20;;
19623;SDS011;9959;49.798;9.928;2022-08-05T01:58:01;6.30;;;3.45;;
19623;SDS011;9959;49.798;9.928;2022-08-05T02:00:43;3.28;;;2.97;;
19623;SDS011;9959;49.798;9.928;2022-08-05T02:03:15;5.68;;;3.25;;
19623;SDS011;9959;49.798;9.928;2022-08-05T02:05:54;4.93;;;3.10;;
19623;SDS011;9959;49.798;9.928;2022-08-05T02:08:24;6.07;;;3.13;;
19623;SDS011;9959;49.798;9.928;2022-08-05T02:10:58;3.42;;;2.80;;
19623;SDS011;9959;49.798;9.928;2022-08-05T02:13:36;4.97;;;3.10;;
19623;SDS011;9959;49.798;9.928;2022-08-05T02:16:21;3.97;;;3.13;;
19623;SDS011;9959;49.798;9.928;2022-08-05T02:18:53;8.25;;;2.78;;
19623;SDS011;9959;49.798;9.928;2022-08-05T02:21:27;3.35;;;2.80;;
19623;SDS011;9959;49.798;9.928;2022-08-05T02:24:13;7.22;;;3.08;;
19623;SDS011;9959;49.798;9.928;2022-08-05T02:26:49;3.50;;;2.88;;
19623;SDS011;9959;49.798;9.928;2022-08-05T02:29:21;5.13;;;2.83;;
19623;SDS011;9959;49.798;9.928;2022-08-05T02:32:12;4.32;;;2.78;;
19623;SDS011;9959;49.798;9.928;2022-08-05T02:34:55;5.15;;;2.72;;
19623;SDS011;9959;49.798;9.928;2022-08-05T02:37:27;5.07;;;2.78;;
19623;SDS011;9959;49.798;9.928;2022-08-05T02:40:00;4.05;;;3.10;;
19623;SDS011;9959;49.798;9.928;2022-08-05T02:42:34;6.72;;;3.28;;
19623;SDS011;9959;49.798;9.928;2022-08-05T02:45:05;4.47;;;2.78;;
19623;SDS011;9959;49.798;9.928;2022-08-05T02:47:37;5.47;;;3.10;;
19623;SDS011;9959;49.798;9.928;2022-08-05T02:50:26;8.63;;;3.05;;
19623;SDS011;9959;49.798;9.928;2022-08-05T02:52:55;4.82;;;2.85;;
19623;SDS011;9959;49.798;9.928;2022-08-05T02:55:25;6.30;;;3.08;;
19623;SDS011;9959;49.798;9.928;2022-08-05T02:58:14;4.13;;;3.00;;
19623;SDS011;9959;49.798;9.928;2022-08-05T03:00:45;6.65;;;3.17;;
19623;SDS011;9959;49.798;9.928;2022-08-05T03:03:15;13.77;;;4.00;;
19623;SDS011;9959;49.798;9.928;2022-08-05T03:05:49;4.68;;;3.35;;
19623;SDS011;9959;49.798;9.928;2022-08-05T03:08:38;6.05;;;3.25;;
19623;SDS011;9959;49.798;9.928;2022-08-05T03:11:18;6.22;;;3.30;;
19623;SDS011;9959;49.798;9.928;2022-08-05T03:14:07;7.75;;;3.00;;
19623;SDS011;9959;49.798;9.928;2022-08-05T03:16:39;3.53;;;3.15;;
19623;SDS011;9959;49.798;9.928;2022-08-05T03:19:08;5.30;;;3.17;;
19623;SDS011;9959;49.798;9.928;2022-08-05T03:21:57;5.13;;;3.42;;
19623;SDS011;9959;49.798;9.928;2022-08-05T03:24:25;5.72;;;3.10;;
19623;SDS011;9959;49.798;9.928;2022-08-05T03:26:55;7.07;;;3.83;;
19623;SDS011;9959;49.798;9.928;2022-08-05T03:29:23;6.97;;;3.22;;
19623;SDS011;9959;49.798;9.928;2022-08-05T03:32:11;5.53;;;3.20;;
19623;SDS011;9959;49.798;9.928;2022-08-05T03:34:42;5.68;;;3.00;;
19623;SDS011;9959;49.798;9.928;2022-08-05T03:37:17;5.47;;;3.35;;
19623;SDS011;9959;49.798;9.928;2022-08-05T03:39:53;5.50;;;3.83;;
19623;SDS011;9959;49.798;9.928;2022-08-05T03:42:24;5.70;;;3.38;;
19623;SDS011;9959;49.798;9.928;2022-08-05T03:44:54;4.32;;;3.40;;
19623;SDS011;9959;49.798;9.928;2022-08-05T03:47:22;9.15;;;3.28;;
19623;SDS011;9959;49.798;9.928;2022-08-05T03:49:57;6.43;;;3.40;;
19623;SDS011;9959;49.798;9.928;2022-08-05T03:52:26;7.65;;;3.63;;
19623;SDS011;9959;49.798;9.928;2022-08-05T03:55:06;5.47;;;3.47;;
19623;SDS011;9959;49.798;9.928;2022-08-05T03:57:57;5.47;;;3.03;;
19623;SDS011;9959;49.798;9.928;2022-08-05T04:00:28;8.13;;;3.53;;
19623;SDS011;9959;49.798;9.928;2022-08-05T04:02:58;10.73;;;3.22;;
19623;SDS011;9959;49.798;9.928;2022-08-05T04:05:32;5.25;;;3.08;;
19623;SDS011;9959;49.798;9.928;2022-08-05T04:08:06;8.48;;;3.15;;
19623;SDS011;9959;49.798;9.928;2022-08-05T04:10:40;4.10;;;3.17;;
19623;SDS011;9959;49.798;9.928;2022-08-05T04:13:10;5.80;;;3.10;;
19623;SDS011;9959;49.798;9.928;2022-08-05T04:15:38;4.55;;;3.60;;
19623;SDS011;9959;49.798;9.928;2022-08-05T04:18:26;6.45;;;3.53;;
19623;SDS011;9959;49.798;9.928;2022-08-05T04:20:56;6.15;;;3.63;;
19623;SDS011;9959;49.798;9.928;2022-08-05T04:23:25;6.47;;;3.65;;
19623;SDS011;9959;49.798;9.928;2022-08-05T04:26:14;5.22;;;2.92;;
19623;SDS011;9959;49.798;9.928;2022-08-05T04:28:43;5.13;;;3.38;;
19623;SDS011;9959;49.798;9.928;2022-08-05T04:31:16;5.57;;;3.15;;
19623;SDS011;9959;49.798;9.928;2022-08-05T04:33:44;3.72;;;3.08;;
19623;SDS011;9959;49.798;9.928;2022-08-05T04:36:33;6.03;;;3.47;;
19623;SDS011;9959;49.798;9.928;2022-08-05T04:39:14;6.60;;;3.42;;
19623;SDS011;9959;49.798;9.928;2022-08-05T04:41:43;3.60;;;3.15;;
19623;SDS011;9959;49.798;9.928;2022-08-05T04:44:13;5.65;;;3.20;;
19623;SDS011;9959;49.798;9.928;2022-08-05T04:46:49;4.53;;;3.15;;
19623;SDS011;9959;49.798;9.928;2022-08-05T04:49:18;6.07;;;3.25;;
19623;SDS011;9959;49.798;9.928;2022-08-05T04:52:06;9.55;;;3.92;;
19623;SDS011;9959;49.798;9.928;2022-08-05T04:54:33;3.92;;;3.35;;
19623;SDS011;9959;49.798;9.928;2022-08-05T04:57:01;5.55;;;3.40;;
19623;SDS011;9959;49.798;9.928;2022-08-05T04:59:30;4.82;;;3.90;;
19623;SDS011;9959;49.798;9.928;2022-08-05T05:02:04;7.18;;;3.40;;
19623;SDS011;9959;49.798;9.928;2022-08-05T05:04:52;4.72;;;3.30;;
19623;SDS011;9959;49.798;9.928;2022-08-05T05:07:29;7.20;;;3.65;;
19623;SDS011;9959;49.798;9.928;2022-08-05T05:10:01;3.72;;;3.30;;
19623;SDS011;9959;49.798;9.928;2022-08-05T05:12:31;6.22;;;3.45;;
19623;SDS011;9959;49.798;9.928;2022-08-05T05:14:59;7.30;;;3.05;;
19623;SDS011;9959;49.798;9.928;2022-08-05T05:17:35;5.15;;;3.00;;
19623;SDS011;9959;49.798;9.928;2022-08-05T05:20:22;4.50;;;3.33;;
19623;SDS011;9959;49.798;9.928;2022-08-05T05:22:55;6.15;;;3.50;;
19623;SDS011;9959;49.798;9.928;2022-08-05T05:25:23;7.68;;;3.50;;
19623;SDS011;9959;49.798;9.928;2022-08-05T05:27:58;8.13;;;3.42;;
19623;SDS011;9959;49.798;9.928;2022-08-05T05:30:26;7.68;;;2.85;;
19623;SDS011;9959;49.798;9.928;2022-08-05T05:32:59;4.60;;;2.78;;
19623;SDS011;9959;49.798;9.928;2022-08-05T05:35:43;3.28;;;2.67;;
19623;SDS011;9959;49.798;9.928;2022-08-05T05:38:14;8.80;;;2.85;;
19623;SDS011;9959;49.798;9.928;2022-08-05T05:40:52;3.30;;;2.55;;
19623;SDS011;9959;49.798;9.928;2022-08-05T05:43:21;3.78;;;2.40;;
19623;SDS011;9959;49.798;9.928;2022-08-05T05:46:09;9.43;;;2.72;;
19623;SDS011;9959;49.798;9.928;2022-08-05T05:48:44;3.70;;;2.70;;
19623;SDS011;9959;49.798;9.928;2022-08-05T05:51:17;3.53;;;2.55;;
19623;SDS011;9959;49.798;9.928;2022-08-05T05:53:47;3.15;;;2.50;;
19623;SDS011;9959;49.798;9.928;2022-08-05T05:56:24;4.03;;;2.45;;
19623;SDS011;9959;49.798;9.928;2022-08-05T05:58:58;3.00;;;2.40;;
19623;SDS011;9959;49.798;9.928;2022-08-05T06:01:29;4.35;;;2.50;;
19623;SDS011;9959;49.798;9.928;2022-08-05T06:04:04;3.97;;;2.33;;
19623;SDS011;9959;49.798;9.928;2022-08-05T06:06:37;4.93;;;2.65;;
19623;SDS011;9959;49.798;9.928;2022-08-05T06:09:08;6.07;;;3.00;;
19623;SDS011;9959;49.798;9.928;2022-08-05T06:11:43;3.25;;;2.75;;
19623;SDS011;9959;49.798;9.928;2022-08-05T06:14:27;6.72;;;2.55;;
19623;SDS011;9959;49.798;9.928;2022-08-05T06:16:55;3.13;;;2.67;;
19623;SDS011;9959;49.798;9.928;2022-08-05T06:19:23;6.18;;;2.92;;
19623;SDS011;9959;49.798;9.928;2022-08-05T06:22:00;3.42;;;2.83;;
19623;SDS011;9959;49.798;9.928;2022-08-05T06:24:30;3.53;;;2.53;;
19623;SDS011;9959;49.798;9.928;2022-08-05T06:26:58;4.40;;;2.50;;
19623;SDS011;9959;49.798;9.928;2022-08-05T06:29:25;3.20;;;2.50;;
19623;SDS011;9959;49.798;9.928;2022-08-05T06:32:13;3.40;;;2.67;;
19623;SDS011;9959;49.798;9.928;2022-08-05T06:34:50;2.78;;;2.40;;
19623;SDS011;9959;49.798;9.928;2022-08-05T06:37:22;4.25;;;3.08;;
19623;SDS011;9959;49.798;9.928;2022-08-05T06:40:12;3.00;;;2.45;;
19623;SDS011;9959;49.798;9.928;2022-08-05T06:42:46;4.80;;;2.90;;
19623;SDS011;9959;49.798;9.928;2022-08-05T06:45:17;5.78;;;2.90;;
19623;SDS011;9959;49.798;9.928;2022-08-05T06:48:05;3.70;;;2.40;;
19623;SDS011;9959;49.798;9.928;2022-08-05T06:50:52;3.67;;;2.70;;
19623;SDS011;9959;49.798;9.928;2022-08-05T06:53:20;4.70;;;2.55;;
19623;SDS011;9959;49.798;9.928;2022-08-05T06:55:55;4.97;;;2.70;;
19623;SDS011;9959;49.798;9.928;2022-08-05T06:58:24;3.38;;;2.65;;
19623;SDS011;9959;49.798;9.928;2022-08-05T07:01:00;3.50;;;2.40;;
19623;SDS011;9959;49.798;9.928;2022-08-05T07:03:29;2.80;;;2.60;;
19623;SDS011;9959;49.798;9.928;2022-08-05T07:05:58;5.30;;;2.60;;
19623;SDS011;9959;49.798;9.928;2022-08-05T07:08:31;6.28;;;2.60;;
19623;SDS011;9959;49.798;9.928;2022-08-05T07:11:00;4.53;;;2.63;;
19623;SDS011;9959;49.798;9.928;2022-08-05T07:13:30;5.85;;;2.92;;
19623;SDS011;9959;49.798;9.928;2022-08-05T07:16:25;3.72;;;2.83;;
19623;SDS011;9959;49.798;9.928;2022-08-05T07:19:31;5.55;;;2.63;;
19623;SDS011;9959;49.798;9.928;2022-08-05T07:22:19;5.40;;;3.47;;
19623;SDS011;9959;49.798;9.928;2022-08-05T07:24:54;3.15;;;2.40;;
19623;SDS011;9959;49.798;9.928;2022-08-05T07:27:24;4.57;;;2.63;;
19623;SDS011;9959;49.798;9.928;2022-08-05T07:30:12;4.13;;;2.95;;
19623;SDS011;9959;49.798;9.928;2022-08-05T07:32:53;6.05;;;2.70;;
19623;SDS011;9959;49.798;9.928;2022-08-05T07:35:22;3.75;;;2.95;;
19623;SDS011;9959;49.798;9.928;2022-08-05T07:38:10;3.65;;;2.45;;
19623;SDS011;9959;49.798;9.928;2022-08-05T07:40:51;3.80;;;2.67;;
19623;SDS011;9959;49.798;9.928;2022-08-05T07:43:28;3.80;;;2.60;;
19623;SDS011;9959;49.798;9.928;2022-08-05T07:45:56;3.15;;;2.78;;
19623;SDS011;9959;49.798;9.928;2022-08-05T07:48:24;3.72;;;2.28;;
19623;SDS011;9959;49.798;9.928;2022-08-05T07:51:12;4.57;;;2.70;;
19623;SDS011;9959;49.798;9.928;2022-08-05T07:53:49;4.65;;;2.72;;
19623;SDS011;9959;49.798;9.928;2022-08-05T07:56:17;3.00;;;2.70;;
19623;SDS011;9959;49.798;9.928;2022-08-05T07:59:06;5.00;;;2.85;;
19623;SDS011;9959;49.798;9.928;2022-08-05T08:01:34;5.20;;;2.58;;
19623;SDS011;9959;49.798;9.928;2022-08-05T08:04:17;4.72;;;2.80;;
19623;SDS011;9959;49.798;9.928;2022-08-05T08:06:59;4.07;;;2.78;;
19623;SDS011;9959;49.798;9.928;2022-08-05T08:09:30;3.85;;;2.60;;
19623;SDS011;9959;49.798;9.928;2022-08-05T08:11:59;3.08;;;2.72;;
19623;SDS011;9959;49.798;9.928;2022-08-05T08:14:38;3.45;;;2.53;;
19623;SDS011;9959;49.798;9.928;2022-08-05T08:17:06;3.53;;;2.60;;
19623;SDS011;9959;49.798;9.928;2022-08-05T08:19:36;3.33;;;2.30;;
19623;SDS011;9959;49.798;9.928;2022-08-05T08:22:24;4.38;;;2.72;;
19623;SDS011;9959;49.798;9.928;2022-08-05T08:24:53;3.47;;;2.88;;
19623;SDS011;9959;49.798;9.928;2022-08-05T08:27:28;2.72;;;2.47;;
19623;SDS011;9959;49.798;9.928;2022-08-05T08:30:11;3.20;;;2.80;;
19623;SDS011;9959;49.798;9.928;2022-08-05T08:33:00;3.97;;;2.83;;
19623;SDS011;9959;49.798;9.928;2022-08-05T08:35:33;5.38;;;2.95;;
19623;SDS011;9959;49.798;9.928;2022-08-05T08:38:06;4.00;;;2.67;;
19623;SDS011;9959;49.798;9.928;2022-08-05T08:40:41;3.47;;;2.65;;
19623;SDS011;9959;49.798;9.928;2022-08-05T08:43:15;4.22;;;2.80;;
19623;SDS011;9959;49.798;9.928;2022-08-05T08:46:08;2.88;;;2.40;;
19623;SDS011;9959;49.798;9.928;2022-08-05T08:48:41;5.88;;;2.95;;
19623;SDS011;9959;49.798;9.928;2022-08-05T08:51:34;3.00;;;2.70;;
19623;SDS011;9959;49.798;9.928;2022-08-05T08:54:25;3.10;;;2.33;;
19623;SDS011;9959;49.798;9.928;2022-08-05T08:56:53;4.47;;;2.97;;
19623;SDS011;9959;49.798;9.928;2022-08-05T08:59:21;4.43;;;2.70;;
19623;SDS011;9959;49.798;9.928;2022-08-05T09:02:00;2.50;;;2.30;;
19623;SDS011;9959;49.798;9.928;2022-08-05T09:04:34;3.40;;;2.65;;
19623;SDS011;9959;49.798;9.928;2022-08-05T09:07:23;3.08;;;2.53;;
19623;SDS011;9959;49.798;9.928;2022-08-05T09:09:54;2.80;;;2.60;;
19623;SDS011;9959;49.798;9.928;2022-08-05T09:12:23;5.20;;;2.47;;
19623;SDS011;9959;49.798;9.928;2022-08-05T09:14:55;3.17;;;2.60;;
19623;SDS011;9959;49.798;9.928;2022-08-05T09:17:33;2.75;;;2.30;;
19623;SDS011;9959;49.798;9.928;2022-08-05T09:20:08;4.43;;;2.80;;
19623;SDS011;9959;49.798;9.928;2022-08-05T09:25:45;3.03;;;2.63;;
19623;SDS011;9959;49.798;9.928;2022-08-05T09:28:28;2.95;;;2.67;;
19623;SDS011;9959;49.798;9.928;2022-08-05T09:31:00;3.65;;;2.88;;
19623;SDS011;9959;49.798;9.928;2022-08-05T09:33:50;3.17;;;2.70;;
19623;SDS011;9959;49.798;9.928;2022-08-05T09:36:19;4.43;;;2.50;;
19623;SDS011;9959;49.798;9.928;2022-08-05T09:38:55;2.35;;;2.15;;
19623;SDS011;9959;49.798;9.928;2022-08-05T09:41:24;4.25;;;2.83;;
19623;SDS011;9959;49.798;9.928;2022-08-05T09:43:58;3.17;;;2.78;;
19623;SDS011;9959;49.798;9.928;2022-08-05T09:46:27;3.25;;;2.60;;
19623;SDS011;9959;49.798;9.928;2022-08-05T09:48:58;3.20;;;2.88;;
19623;SDS011;9959;49.798;9.928;2022-08-05T09:51:34;2.83;;;2.58;;
19623;SDS011;9959;49.798;9.928;2022-08-05T09:54:05;5.25;;;2.92;;
19623;SDS011;9959;49.798;9.928;2022-08-05T09:56:35;3.20;;;2.60;;
19623;SDS011;9959;49.798;9.928;2022-08-05T09:59:04;3.03;;;2.58;;
19623;SDS011;9959;49.798;9.928;2022-08-05T10:01:35;5.50;;;3.45;;
19623;SDS011;9959;49.798;9.928;2022-08-05T10:04:13;4.43;;;2.53;;
19623;SDS011;9959;49.798;9.928;2022-08-05T10:06:52;4.63;;;2.55;;
19623;SDS011;9959;49.798;9.928;2022-08-05T10:09:24;2.67;;;2.47;;
19623;SDS011;9959;49.798;9.928;2022-08-05T10:12:05;3.83;;;2.80;;
19623;SDS011;9959;49.798;9.928;2022-08-05T10:15:05;2.67;;;2.42;;
19623;SDS011;9959;49.798;9.928;2022-08-05T10:17:42;2.42;;;2.22;;
19623;SDS011;9959;49.798;9.928;2022-08-05T10:20:23;4.35;;;2.78;;
19623;SDS011;9959;49.798;9.928;2022-08-05T10:22:52;4.05;;;2.63;;
19623;SDS011;9959;49.798;9.928;2022-08-05T10:25:23;4.43;;;2.65;;
19623;SDS011;9959;49.798;9.928;2022-08-05T10:27:51;3.20;;;2.90;;
19623;SDS011;9959;49.798;9.928;2022-08-05T10:30:39;3.88;;;2.70;;
19623;SDS011;9959;49.798;9.928;2022-08-05T10:33:27;2.42;;;2.22;;
19623;SDS011;9959;49.798;9.928;2022-08-05T10:36:02;2.75;;;2.30;;
19623;SDS011;9959;49.798;9.928;2022-08-05T10:38:31;2.55;;;2.30;;
19623;SDS011;9959;49.798;9.928;2022-08-05T10:41:01;3.28;;;2.53;;
19623;SDS011;9959;49.798;9.928;2022-08-05T10:43:41;3.47;;;2.50;;
19623;SDS011;9959;49.798;9.928;2022-08-05T10:46:14;2.83;;;2.42;;
19623;SDS011;9959;49.798;9.928;2022-08-05T10:48:44;3.42;;;2.40;;
19623;SDS011;9959;49.798;9.928;2022-08-05T10:51:23;2.20;;;2.00;;
19623;SDS011;9959;49.798;9.928;2022-08-05T10:53:55;3.53;;;2.30;;
19623;SDS011;9959;49.798;9.928;2022-08-05T10:56:27;3.88;;;2.50;;
19623;SDS011;9959;49.798;9.928;2022-08-05T10:59:01;2.85;;;2.55;;
19623;SDS011;9959;49.798;9.928;2022-08-05T11:01:33;3.13;;;2.08;;
19623;SDS011;9959;49.798;9.928;2022-08-05T11:04:22;2.63;;;2.42;;
19623;SDS011;9959;49.798;9.928;2022-08-05T11:07:05;5.95;;;2.55;;
19623;SDS011;9959;49.798;9.928;2022-08-05T11:09:38;4.72;;;2.42;;
19623;SDS011;9959;49.798;9.928;2022-08-05T11:15:17;4.60;;;2.58;;
19623;SDS011;9959;49.798;9.928;2022-08-05T11:17:47;3.92;;;2.90;;
19623;SDS011;9959;49.798;9.928;2022-08-05T11:20:36;2.80;;;2.50;;
19623;SDS011;9959;49.798;9.928;2022-08-05T11:23:29;2.60;;;2.40;;
19623;SDS011;9959;49.798;9.928;2022-08-05T11:26:20;3.55;;;2.75;;
19623;SDS011;9959;49.798;9.928;2022-08-05T11:28:54;2.67;;;2.47;;
19623;SDS011;9959;49.798;9.928;2022-08-05T11:31:28;2.30;;;2.10;;
19623;SDS011;9959;49.798;9.928;2022-08-05T11:34:20;2.30;;;2.10;;
19623;SDS011;9959;49.798;9.928;2022-08-05T11:37:03;4.15;;;2.45;;
19623;SDS011;9959;49.798;9.928;2022-08-05T11:39:52;2.58;;;2.38;;
19623;SDS011;9959;49.798;9.928;2022-08-05T11:42:29;2.75;;;2.40;;
19623;SDS011;9959;49.798;9.928;2022-08-05T11:45:04;5.32;;;2.40;;
19623;SDS011;9959;49.798;9.928;2022-08-05T11:47:39;2.20;;;2.00;;
19623;SDS011;9959;49.798;9.928;2022-08-05T11:50:14;3.58;;;2.22;;
19623;SDS011;9959;49.798;9.928;2022-08-05T11:52:42;2.47;;;2.28;;
19623;SDS011;9959;49.798;9.928;2022-08-05T11:55:16;4.03;;;2.08;;
19623;SDS011;9959;49.798;9.928;2022-08-05T11:57:44;3.22;;;1.90;;
19623;SDS011;9959;49.798;9.928;2022-08-05T12:00:32;1.95;;;1.83;;
19623;SDS011;9959;49.798;9.928;2022-08-05T12:03:14;3.03;;;1.75;;
19623;SDS011;9959;49.798;9.928;2022-08-05T12:05:57;2.00;;;1.80;;
19623;SDS011;9959;49.798;9.928;2022-08-05T12:08:26;4.93;;;2.25;;
19623;SDS011;9959;49.798;9.928;2022-08-05T12:10:59;2.95;;;1.80;;
19623;SDS011;9959;49.798;9.928;2022-08-05T12:13:31;3.47;;;2.22;;
19623;SDS011;9959;49.798;9.928;2022-08-05T12:16:16;1.90;;;1.80;;
19623;SDS011;9959;49.798;9.928;2022-08-05T12:18:45;2.30;;;2.10;;
19623;SDS011;9959;49.798;9.928;2022-08-05T12:21:16;2.38;;;2.17;;
19623;SDS011;9959;49.798;9.928;2022-08-05T12:23:51;2.30;;;2.10;;
19623;SDS011;9959;49.798;9.928;2022-08-05T12:26:31;2.95;;;2.15;;
19623;SDS011;9959;49.798;9.928;2022-08-05T12:29:01;2.17;;;1.98;;
19623;SDS011;9959;49.798;9.928;2022-08-05T12:31:30;1.85;;;1.75;;
19623;SDS011;9959;49.798;9.928;2022-08-05T12:34:11;2.17;;;1.80;;
19623;SDS011;9959;49.798;9.928;2022-08-05T12:36:47;2.33;;;2.13;;
19623;SDS011;9959;49.798;9.928;2022-08-05T12:39:17;2.22;;;1.92;;
19623;SDS011;9959;49.798;9.928;2022-08-05T12:41:46;2.70;;;2.50;;
19623;SDS011;9959;49.798;9.928;2022-08-05T12:44:15;3.28;;;2.10;;
19623;SDS011;9959;49.798;9.928;2022-08-05T12:46:54;2.88;;;2.08;;
19623;SDS011;9959;49.798;9.928;2022-08-05T12:49:22;2.80;;;2.38;;
19623;SDS011;9959;49.798;9.928;2022-08-05T12:51:52;3.10;;;2.08;;
19623;SDS011;9959;49.798;9.928;2022-08-05T12:54:40;2.33;;;2.10;;
19623;SDS011;9959;49.798;9.928;2022-08-05T12:57:10;3.35;;;2.15;;
19623;SDS011;9959;49.798;9.928;2022-08-05T12:59:42;3.95;;;2.17;;
19623;SDS011;9959;49.798;9.928;2022-08-05T13:02:34;2.35;;;2.15;;
19623;SDS011;9959;49.798;9.928;2022-08-05T13:05:05;3.13;;;2.40;;
19623;SDS011;9959;49.798;9.928;2022-08-05T13:07:38;3.17;;;2.45;;
19623;SDS011;9959;49.798;9.928;2022-08-05T13:10:24;3.28;;;2.25;;
19623;SDS011;9959;49.798;9.928;2022-08-05T13:12:55;4.28;;;2.25;;
19623;SDS011;9959;49.798;9.928;2022-08-05T13:15:27;3.60;;;2.30;;
19623;SDS011;9959;49.798;9.928;2022-08-05T13:18:07;3.13;;;2.38;;
19623;SDS011;9959;49.798;9.928;2022-08-05T13:20:35;3.13;;;2.50;;
19623;SDS011;9959;49.798;9.928;2022-08-05T13:23:05;2.85;;;2.40;;
19623;SDS011;9959;49.798;9.928;2022-08-05T13:25:33;3.78;;;2.38;;
19623;SDS011;9959;49.798;9.928;2022-08-05T13:28:23;3.28;;;2.40;;
19623;SDS011;9959;49.798;9.928;2022-08-05T13:30:50;4.57;;;2.63;;
19623;SDS011;9959;49.798;9.928;2022-08-05T13:33:19;2.70;;;2.50;;
19623;SDS011;9959;49.798;9.928;2022-08-05T13:36:06;2.45;;;2.25;;
19623;SDS011;9959;49.798;9.928;2022-08-05T13:38:35;3.58;;;2.90;;
19623;SDS011;9959;49.798;9.928;2022-08-05T13:41:07;3.22;;;2.60;;
19623;SDS011;9959;49.798;9.928;2022-08-05T13:43:36;3.15;;;2.45;;
19623;SDS011;9959;49.798;9.928;2022-08-05T13:46:11;4.32;;;2.80;;
19623;SDS011;9959;49.798;9.928;2022-08-05T13:48:39;3.63;;;2.95;;
19623;SDS011;9959;49.798;9.928;2022-08-05T13:51:25;3.00;;;2.45;;
19623;SDS011;9959;49.798;9.928;2022-08-05T13:53:55;2.80;;;2.60;;
19623;SDS011;9959;49.798;9.928;2022-08-05T13:56:23;3.42;;;2.75;;
19623;SDS011;9959;49.798;9.928;2022-08-05T13:58:52;2.75;;;2.53;;
19623;SDS011;9959;49.798;9.928;2022-08-05T14:01:20;4.25;;;2.35;;
19623;SDS011;9959;49.798;9.928;2022-08-05T14:04:01;2.90;;;2.60;;
19623;SDS011;9959;49.798;9.928;2022-08-05T14:06:47;4.50;;;2.40;;
19623;SDS011;9959;49.798;9.928;2022-08-05T14:09:15;3.65;;;2.42;;
19623;SDS011;9959;49.798;9.928;2022-08-05T14:11:43;2.47;;;2.28;;
19623;SDS011;9959;49.798;9.928;2022-08-05T14:14:31;3.70;;;2.55;;
19623;SDS011;9959;49.798;9.928;2022-08-05T14:16:59;3.47;;;2.33;;
19623;SDS011;9959;49.798;9.928;2022-08-05T14:19:27;3.20;;;2.42;;
19623;SDS011;9959;49.798;9.928;2022-08-05T14:21:55;2.58;;;2.38;;
19623;SDS011;9959;49.798;9.928;2022-08-05T14:24:35;2.78;;;2.38;;
19623;SDS011;9959;49.798;9.928;2022-08-05T14:27:05;2.83;;;2.42;;
19623;SDS011;9959;49.798;9.928;2022-08-05T14:29:44;3.40;;;2.45;;
19623;SDS011;9959;49.798;9.928;2022-08-05T14:32:16;3.08;;;2.50;;
19623;SDS011;9959;49.798;9.928;2022-08-05T14:34:52;4.25;;;2.78;;
19623;SDS011;9959;49.798;9.928;2022-08-05T14:37:22;3.05;;;2.55;;
19623;SDS011;9959;49.798;9.928;2022-08-05T14:40:10;3.13;;;2.83;;
19623;SDS011;9959;49.798;9.928;2022-08-05T14:42:39;3.80;;;3.03;;
19623;SDS011;9959;49.798;9.928;2022-08-05T14:45:09;5.60;;;2.53;;
19623;SDS011;9959;49.798;9.928;2022-08-05T14:47:37;2.78;;;2.50;;
19623;SDS011;9959;49.798;9.928;2022-08-05T14:50:25;3.13;;;2.83;;
19623;SDS011;9959;49.798;9.928;2022-08-05T14:52:53;3.55;;;3.13;;
19623;SDS011;9959;49.798;9.928;2022-08-05T14:55:24;2.80;;;2.60;;
19623;SDS011;9959;49.798;9.928;2022-08-05T14:58:04;3.03;;;2.75;;
19623;SDS011;9959;49.798;9.928;2022-08-05T15:00:39;5.38;;;2.70;;
19623;SDS011;9959;49.798;9.928;2022-08-05T15:03:26;3.17;;;2.88;;
19623;SDS011;9959;49.798;9.928;2022-08-05T15:05:59;3.47;;;3.13;;
19623;SDS011;9959;49.798;9.928;2022-08-05T15:08:32;3.20;;;2.75;;
19623;SDS011;9959;49.798;9.928;2022-08-05T15:11:20;3.10;;;2.80;;
19623;SDS011;9959;49.798;9.928;2022-08-05T15:13:48;4.20;;;2.85;;
19623;SDS011;9959;49.798;9.928;2022-08-05T15:16:17;4.63;;;3.30;;
19623;SDS011;9959;49.798;9.928;2022-08-05T15:18:48;3.85;;;3.05;;
19623;SDS011;9959;49.798;9.928;2022-08-05T15:21:17;4.88;;;3.10;;
19623;SDS011;9959;49.798;9.928;2022-08-05T15:23:46;6.40;;;3.35;;
19623;SDS011;9959;49.798;9.928;2022-08-05T15:26:14;3.13;;;2.83;;
19623;SDS011;9959;49.798;9.928;2022-08-05T15:28:57;4.80;;;3.03;;
19623;SDS011;9959;49.798;9.928;2022-08-05T15:31:26;5.38;;;3.03;;
19623;SDS011;9959;49.798;9.928;2022-08-05T15:34:00;7.47;;;3.03;;
19623;SDS011;9959;49.798;9.928;2022-08-05T15:36:44;4.10;;;3.67;;
19623;SDS011;9959;49.798;9.928;2022-08-05T15:39:12;4.43;;;3.47;;
19623;SDS011;9959;49.798;9.928;2022-08-05T15:42:00;3.75;;;3.35;;
19623;SDS011;9959;49.798;9.928;2022-08-05T15:44:48;3.85;;;3.45;;
19623;SDS011;9959;49.798;9.928;2022-08-05T15:47:17;3.17;;;2.88;;
19623;SDS011;9959;49.798;9.928;2022-08-05T15:49:46;4.03;;;3.30;;
19623;SDS011;9959;49.798;9.928;2022-08-05T15:52:22;4.10;;;3.70;;
19623;SDS011;9959;49.798;9.928;2022-08-05T15:55:11;6.20;;;3.78;;
19623;SDS011;9959;49.798;9.928;2022-08-05T15:57:41;3.80;;;3.40;;